createdAt,value
2023-03-24T00:00:04.225Z,13.24
2023-03-24T00:01:04.217Z,13.17
2023-03-24T00:02:04.267Z,13.21
2023-03-24T00:03:04.256Z,13.20
2023-03-24T00:04:04.177Z,13.06
2023-03-24T00:05:04.115Z,13.06
2023-03-24T00:06:04.095Z,13.06
2023-03-24T00:07:04.072Z,13.04
2023-03-24T00:08:04.655Z,12.96
2023-03-24T00:09:04.032Z,12.88
2023-03-24T00:10:04.012Z,13.02
2023-03-24T00:11:03.996Z,13.04
2023-03-24T00:12:03.959Z,13.06
2023-03-24T00:13:03.961Z,13.02
2023-03-24T00:14:03.909Z,13.04
2023-03-24T00:15:03.909Z,13.07
2023-03-24T00:16:03.911Z,13.09
2023-03-24T00:17:03.856Z,13.07
2023-03-24T00:18:03.857Z,13.06
2023-03-24T00:19:03.834Z,13.00
2023-03-24T00:20:03.809Z,12.93
2023-03-24T00:21:03.771Z,12.97
2023-03-24T00:22:03.767Z,12.99
2023-03-24T00:23:03.721Z,13.02
2023-03-24T00:24:03.707Z,12.89
2023-03-24T00:25:03.677Z,13.03
2023-03-24T00:26:03.649Z,12.87
2023-03-24T00:27:03.687Z,12.96
2023-03-24T00:28:03.599Z,12.99
2023-03-24T00:29:03.587Z,12.93
2023-03-24T00:30:03.556Z,12.88
2023-03-24T00:31:03.562Z,12.96
2023-03-24T00:32:03.519Z,13.02
2023-03-24T00:33:03.507Z,12.95
2023-03-24T00:34:03.478Z,12.84
2023-03-24T00:35:03.452Z,12.84
2023-03-24T00:36:03.454Z,12.88
2023-03-24T00:37:03.423Z,12.81
2023-03-24T00:38:03.387Z,12.82
2023-03-24T00:39:03.401Z,12.79
2023-03-24T00:40:03.340Z,12.84
2023-03-24T00:41:03.318Z,12.75
2023-03-24T00:42:03.291Z,12.77
2023-03-24T00:43:03.275Z,12.64
2023-03-24T00:44:03.272Z,12.64
2023-03-24T00:45:03.232Z,12.70
2023-03-24T00:46:03.196Z,12.60
2023-03-24T00:47:03.223Z,12.57
2023-03-24T00:48:03.195Z,12.62
2023-03-24T00:49:03.146Z,12.62
2023-03-24T00:50:03.103Z,12.56
2023-03-24T00:51:03.114Z,12.56
2023-03-24T00:52:03.063Z,12.51
2023-03-24T00:53:03.064Z,12.49
2023-03-24T00:54:03.037Z,12.51
2023-03-24T00:55:03.003Z,12.44
2023-03-24T00:56:02.965Z,12.45
2023-03-24T00:57:03.997Z,12.44
2023-03-24T00:58:02.955Z,12.39
2023-03-24T00:59:02.913Z,12.31
2023-03-24T01:00:02.884Z,12.21
2023-03-24T01:01:02.942Z,12.20
2023-03-24T01:02:02.960Z,12.06
2023-03-24T01:03:02.893Z,12.05
2023-03-24T01:04:02.793Z,11.94
2023-03-24T01:05:02.780Z,11.96
2023-03-24T01:06:03.996Z,11.94
2023-03-24T01:07:02.720Z,11.89
2023-03-24T01:08:02.817Z,11.93
2023-03-24T01:09:02.690Z,11.99
2023-03-24T01:10:02.659Z,11.96
2023-03-24T01:11:02.630Z,11.99
2023-03-24T01:12:02.614Z,12.02
2023-03-24T01:13:02.583Z,12.08
2023-03-24T01:14:02.558Z,12.05
2023-03-24T01:15:02.550Z,11.96
2023-03-24T01:16:02.549Z,11.97
2023-03-24T01:17:02.497Z,11.87
2023-03-24T01:18:02.592Z,11.86
2023-03-24T01:19:02.447Z,11.83
2023-03-24T01:20:02.432Z,11.90
2023-03-24T01:21:02.392Z,11.83
2023-03-24T01:22:02.386Z,11.83
2023-03-24T01:23:02.362Z,11.85
2023-03-24T01:24:02.329Z,11.85
2023-03-24T01:25:02.337Z,11.90
2023-03-24T01:26:02.276Z,11.86
2023-03-24T01:27:02.254Z,11.82
2023-03-24T01:28:02.228Z,11.78
2023-03-24T01:29:02.222Z,11.82
2023-03-24T01:30:02.187Z,11.85
2023-03-24T01:31:02.184Z,11.90
2023-03-24T01:32:02.198Z,11.80
2023-03-24T01:33:02.171Z,11.89
2023-03-24T01:34:02.131Z,11.87
2023-03-24T01:35:02.115Z,11.93
2023-03-24T01:36:02.095Z,11.87
2023-03-24T01:37:02.033Z,11.87
2023-03-24T01:38:02.016Z,11.89
2023-03-24T01:39:01.993Z,11.96
2023-03-24T01:40:01.957Z,11.85
2023-03-24T01:41:01.941Z,11.96
2023-03-24T01:42:01.932Z,11.93
2023-03-24T01:43:01.900Z,11.89
2023-03-24T01:44:01.874Z,11.90
2023-03-24T01:45:01.901Z,12.01
2023-03-24T01:46:01.854Z,11.96
2023-03-24T01:47:01.798Z,11.99
2023-03-24T01:48:01.820Z,11.96
2023-03-24T01:49:01.763Z,12.06
2023-03-24T01:50:01.725Z,12.09
2023-03-24T01:51:01.704Z,12.21
2023-03-24T01:52:01.686Z,12.15
2023-03-24T01:53:01.684Z,12.16
2023-03-24T01:54:01.648Z,12.20
2023-03-24T01:55:01.627Z,12.20
2023-03-24T01:56:01.594Z,12.16
2023-03-24T01:57:01.635Z,12.16
2023-03-24T01:58:01.540Z,12.21
2023-03-24T01:59:01.533Z,12.26
2023-03-24T02:00:01.506Z,12.24
2023-03-24T02:01:01.496Z,12.23
2023-03-24T02:02:01.456Z,12.23
2023-03-24T02:03:01.473Z,12.12
2023-03-24T02:04:01.471Z,12.15
2023-03-24T02:05:01.386Z,12.16
2023-03-24T02:06:01.364Z,12.16
2023-03-24T02:07:01.338Z,12.26
2023-03-24T02:08:01.329Z,12.30
2023-03-24T02:09:01.360Z,12.33
2023-03-24T02:10:01.268Z,12.26
2023-03-24T02:11:01.252Z,12.33
2023-03-24T02:12:01.233Z,12.33
2023-03-24T02:13:01.203Z,12.24
2023-03-24T02:14:01.171Z,12.26
2023-03-24T02:15:01.168Z,12.26
2023-03-24T02:16:01.235Z,12.26
2023-03-24T02:17:01.113Z,12.21
2023-03-24T02:18:01.151Z,12.21
2023-03-24T02:19:01.169Z,12.23
2023-03-24T02:20:01.044Z,12.16
2023-03-24T02:21:01.024Z,12.19
2023-03-24T02:22:01.015Z,12.19
2023-03-24T02:23:00.988Z,12.16
2023-03-24T02:24:00.953Z,12.09
2023-03-24T02:25:00.954Z,12.08
2023-03-24T02:26:00.947Z,12.09
2023-03-24T02:27:00.883Z,12.04
2023-03-24T02:28:00.878Z,12.08
2023-03-24T02:29:00.916Z,12.11
2023-03-24T02:30:00.832Z,12.16
2023-03-24T02:31:00.887Z,12.09
2023-03-24T02:32:00.823Z,12.04
2023-03-24T02:33:00.793Z,12.09
2023-03-24T02:34:00.726Z,12.02
2023-03-24T02:35:00.716Z,12.01
2023-03-24T02:36:00.683Z,12.05
2023-03-24T02:37:00.711Z,11.99
2023-03-24T02:38:00.635Z,12.04
2023-03-24T02:39:00.616Z,12.05
2023-03-24T02:40:00.598Z,11.99
2023-03-24T02:41:00.569Z,12.04
2023-03-24T02:42:00.613Z,11.99
2023-03-24T02:43:00.522Z,12.01
2023-03-24T02:44:00.507Z,12.02
2023-03-24T02:45:00.492Z,12.04
2023-03-24T02:46:00.487Z,11.99
2023-03-24T02:47:00.433Z,12.09
2023-03-24T02:48:00.455Z,12.12
2023-03-24T02:49:00.387Z,12.09
2023-03-24T02:50:00.365Z,12.19
2023-03-24T02:51:00.422Z,12.19
2023-03-24T02:52:00.312Z,12.23
2023-03-24T02:53:00.290Z,12.19
2023-03-24T02:54:00.263Z,12.15
2023-03-24T02:55:00.246Z,12.24
2023-03-24T02:56:00.268Z,12.27
2023-03-24T02:57:00.218Z,12.24
2023-03-24T02:58:00.185Z,12.27
2023-03-24T02:59:00.170Z,12.41
2023-03-24T03:00:00.150Z,12.41
2023-03-24T03:01:00.165Z,12.64
2023-03-24T03:02:00.102Z,12.71
2023-03-24T03:03:00.160Z,12.75
2023-03-24T03:04:00.073Z,12.75
2023-03-24T03:05:00.030Z,12.88
2023-03-24T03:06:00.005Z,12.85
2023-03-24T03:06:59.986Z,12.93
2023-03-24T03:07:59.947Z,12.89
2023-03-24T03:08:59.934Z,13.03
2023-03-24T03:09:59.901Z,13.11
2023-03-24T03:10:59.874Z,13.21
2023-03-24T03:11:59.851Z,13.33
2023-03-24T03:12:59.818Z,13.38
2023-03-24T03:13:59.820Z,13.30
2023-03-24T03:14:59.816Z,13.36
2023-03-24T03:15:59.817Z,13.58
2023-03-24T03:16:59.735Z,13.54
2023-03-24T03:17:59.745Z,13.61
2023-03-24T03:18:59.695Z,13.56
2023-03-24T03:19:59.671Z,13.54
2023-03-24T03:20:59.680Z,13.56
2023-03-24T03:21:59.634Z,13.54
2023-03-24T03:22:59.609Z,13.54
2023-03-24T03:23:59.589Z,13.54
2023-03-24T03:24:59.563Z,13.54
2023-03-24T03:25:59.541Z,13.54
2023-03-24T03:26:59.514Z,13.47
2023-03-24T03:27:59.493Z,13.46
2023-03-24T03:28:59.477Z,13.44
2023-03-24T03:29:59.450Z,13.51
2023-03-24T03:30:59.460Z,13.55
2023-03-24T03:31:59.494Z,13.65
2023-03-24T03:32:59.489Z,13.70
2023-03-24T03:33:59.405Z,13.74
2023-03-24T03:34:59.343Z,13.77
2023-03-24T03:35:59.454Z,13.79
2023-03-24T03:36:59.296Z,13.92
2023-03-24T03:37:59.327Z,14.07
2023-03-24T03:38:59.406Z,14.27
2023-03-24T03:39:59.310Z,14.61
2023-03-24T03:40:59.318Z,14.65
2023-03-24T03:41:59.206Z,14.75
2023-03-24T03:42:59.234Z,14.88
2023-03-24T03:43:59.162Z,14.87
2023-03-24T03:44:59.168Z,14.88
2023-03-24T03:45:59.175Z,15.03
2023-03-24T03:46:59.244Z,15.19
2023-03-24T03:47:59.445Z,15.27
2023-03-24T03:48:59.043Z,15.45
2023-03-24T03:49:59.252Z,15.82
2023-03-24T03:51:59.234Z,16.01
2023-03-24T03:52:58.941Z,16.22
2023-03-24T03:53:58.921Z,16.09
2023-03-24T03:54:58.883Z,16.09
2023-03-24T03:55:58.867Z,16.33
2023-03-24T03:56:58.859Z,16.45
2023-03-24T03:57:58.835Z,16.55
2023-03-24T03:58:58.823Z,16.56
2023-03-24T03:59:58.796Z,16.63
2023-03-24T04:00:58.835Z,16.67
2023-03-24T04:01:58.840Z,16.74
2023-03-24T04:02:58.788Z,16.75
2023-03-24T04:03:58.889Z,16.77
2023-03-24T04:05:06.003Z,16.77
2023-03-24T04:05:58.653Z,16.67
2023-03-24T04:06:58.631Z,16.71
2023-03-24T04:07:58.629Z,16.74
2023-03-24T04:08:58.583Z,16.75
2023-03-24T04:09:58.567Z,16.74
2023-03-24T04:10:58.549Z,16.68
2023-03-24T04:11:58.539Z,16.58
2023-03-24T04:12:58.504Z,16.62
2023-03-24T04:13:58.490Z,16.62
2023-03-24T04:14:58.479Z,16.53
2023-03-24T04:15:58.455Z,16.56
2023-03-24T04:16:58.440Z,16.58
2023-03-24T04:17:58.426Z,16.58
2023-03-24T04:18:58.442Z,16.62
2023-03-24T04:19:58.648Z,16.77
2023-03-24T04:20:58.373Z,16.74
2023-03-24T04:21:58.328Z,16.73
2023-03-24T04:22:58.316Z,16.74
2023-03-24T04:23:58.303Z,16.73
2023-03-24T04:24:58.281Z,16.74
2023-03-24T04:25:58.239Z,16.81
2023-03-24T04:26:58.215Z,16.83
2023-03-24T04:27:58.196Z,16.73
2023-03-24T04:28:58.239Z,16.86
2023-03-24T04:29:58.164Z,16.71
2023-03-24T04:30:58.138Z,16.73
2023-03-24T04:31:58.114Z,16.68
2023-03-24T04:32:58.115Z,16.70
2023-03-24T04:33:58.079Z,16.67
2023-03-24T04:34:58.054Z,16.74
2023-03-24T04:35:58.102Z,16.78
2023-03-24T04:36:58.005Z,16.67
2023-03-24T04:37:57.992Z,16.59
2023-03-24T04:38:57.986Z,16.55
2023-03-24T04:39:57.946Z,16.50
2023-03-24T04:40:57.943Z,16.44
2023-03-24T04:41:57.979Z,16.41
2023-03-24T04:42:57.923Z,16.37
2023-03-24T04:43:57.933Z,16.40
2023-03-24T04:44:57.875Z,16.33
2023-03-24T04:45:58.191Z,16.37
2023-03-24T04:46:57.848Z,16.27
2023-03-24T04:47:57.822Z,16.12
2023-03-24T04:48:57.776Z,16.09
2023-03-24T04:49:57.750Z,16.01
2023-03-24T04:50:57.805Z,15.92
2023-03-24T04:51:57.710Z,15.81
2023-03-24T04:52:57.680Z,15.78
2023-03-24T04:53:57.670Z,15.66
2023-03-24T04:54:57.677Z,15.43
2023-03-24T04:55:57.631Z,15.28
2023-03-24T04:56:57.650Z,15.31
2023-03-24T04:57:57.578Z,15.33
2023-03-24T04:58:57.551Z,15.27
2023-03-24T04:59:57.537Z,15.26
2023-03-24T05:00:57.542Z,15.17
2023-03-24T05:01:57.488Z,15.12
2023-03-24T05:02:57.464Z,15.13
2023-03-24T05:03:57.481Z,15.01
2023-03-24T05:04:57.420Z,15.01
2023-03-24T05:05:57.395Z,14.86
2023-03-24T05:06:57.381Z,14.81
2023-03-24T05:07:57.372Z,14.78
2023-03-24T05:08:57.347Z,14.64
2023-03-24T05:09:57.314Z,14.50
2023-03-24T05:10:57.283Z,14.50
2023-03-24T05:11:57.624Z,14.56
2023-03-24T05:12:57.255Z,14.43
2023-03-24T05:13:57.222Z,14.31
2023-03-24T05:14:57.211Z,14.20
2023-03-24T05:15:57.175Z,14.14
2023-03-24T05:16:57.148Z,14.02
2023-03-24T05:17:57.237Z,14.02
2023-03-24T05:18:57.133Z,14.01
2023-03-24T05:19:57.089Z,13.89
2023-03-24T05:20:57.089Z,13.94
2023-03-24T05:21:57.060Z,13.84
2023-03-24T05:22:57.020Z,13.87
2023-03-24T05:23:56.995Z,13.77
2023-03-24T05:24:56.985Z,13.79
2023-03-24T05:25:56.960Z,13.83
2023-03-24T05:26:56.921Z,13.79
2023-03-24T05:27:56.970Z,13.76
2023-03-24T05:28:56.902Z,13.76
2023-03-24T05:29:56.859Z,13.81
2023-03-24T05:30:56.852Z,13.79
2023-03-24T05:31:56.809Z,13.77
2023-03-24T05:32:56.836Z,13.79
2023-03-24T05:33:56.791Z,13.73
2023-03-24T05:34:56.753Z,13.69
2023-03-24T05:35:56.757Z,13.79
2023-03-24T05:36:56.698Z,13.73
2023-03-24T05:37:56.680Z,13.70
2023-03-24T05:38:56.664Z,13.62
2023-03-24T05:39:56.653Z,13.56
2023-03-24T05:40:56.600Z,13.52
2023-03-24T05:41:56.584Z,13.49
2023-03-24T05:42:56.565Z,13.54
2023-03-24T05:43:56.559Z,13.52
2023-03-24T05:44:56.525Z,13.59
2023-03-24T05:45:56.534Z,13.52
2023-03-24T05:46:56.469Z,13.52
2023-03-24T05:47:56.535Z,13.54
2023-03-24T05:48:56.429Z,13.47
2023-03-24T05:49:56.429Z,13.51
2023-03-24T05:50:56.371Z,13.51
2023-03-24T05:51:56.361Z,13.44
2023-03-24T05:52:56.334Z,13.30
2023-03-24T05:53:56.320Z,13.43
2023-03-24T05:54:56.316Z,13.41
2023-03-24T05:55:56.285Z,13.30
2023-03-24T05:56:56.265Z,13.38
2023-03-24T05:57:56.224Z,13.40
2023-03-24T05:58:56.201Z,13.44
2023-03-24T05:59:56.180Z,13.38
2023-03-24T06:00:56.145Z,13.32
2023-03-24T06:01:56.144Z,13.33
2023-03-24T06:02:56.156Z,13.25
2023-03-24T06:03:56.167Z,13.30
2023-03-24T06:04:56.063Z,13.38
2023-03-24T06:05:56.042Z,13.30
2023-03-24T06:06:56.016Z,13.37
2023-03-24T06:07:55.995Z,13.43
2023-03-24T06:08:55.975Z,13.40
2023-03-24T06:09:55.961Z,13.36
2023-03-24T06:10:55.916Z,13.41
2023-03-24T06:11:55.903Z,13.54
2023-03-24T06:12:55.952Z,13.56
2023-03-24T06:13:55.856Z,13.52
2023-03-24T06:14:55.831Z,13.54
2023-03-24T06:15:55.813Z,13.67
2023-03-24T06:16:55.797Z,13.70
2023-03-24T06:17:55.824Z,13.70
2023-03-24T06:18:55.742Z,13.62
2023-03-24T06:19:55.724Z,13.69
2023-03-24T06:20:55.691Z,13.79
2023-03-24T06:21:55.674Z,13.79
2023-03-24T06:22:55.650Z,13.84
2023-03-24T06:23:55.625Z,13.89
2023-03-24T06:24:55.630Z,13.92
2023-03-24T06:25:55.596Z,13.79
2023-03-24T06:26:55.559Z,13.92
2023-03-24T06:27:55.566Z,13.92
2023-03-24T06:28:55.511Z,13.92
2023-03-24T06:29:55.493Z,13.88
2023-03-24T06:30:55.493Z,13.89
2023-03-24T06:31:55.448Z,13.89
2023-03-24T06:32:55.460Z,13.84
2023-03-24T06:33:55.403Z,13.95
2023-03-24T06:34:55.396Z,13.95
2023-03-24T06:35:55.423Z,13.95
2023-03-24T06:36:56.102Z,13.95
2023-03-24T06:37:55.326Z,13.95
2023-03-24T06:38:55.350Z,13.84
2023-03-24T06:39:55.273Z,13.81
2023-03-24T06:40:55.259Z,13.92
2023-03-24T06:41:55.225Z,13.88
2023-03-24T06:42:55.203Z,13.92
2023-03-24T06:43:55.198Z,13.79
2023-03-24T06:44:55.166Z,13.94
2023-03-24T06:45:55.141Z,13.91
2023-03-24T06:46:55.155Z,13.92
2023-03-24T06:47:55.180Z,13.91
2023-03-24T06:48:55.079Z,13.91
2023-03-24T06:49:56.089Z,13.89
2023-03-24T06:50:55.034Z,13.99
2023-03-24T06:51:55.003Z,13.98
2023-03-24T06:52:54.986Z,14.06
2023-03-24T06:53:54.977Z,14.09
2023-03-24T06:54:54.988Z,14.01
2023-03-24T06:55:54.920Z,14.12
2023-03-24T06:56:54.992Z,14.06
2023-03-24T06:57:54.867Z,14.04
2023-03-24T06:58:54.849Z,14.14
2023-03-24T06:59:54.837Z,14.16
2023-03-24T07:00:54.803Z,14.13
2023-03-24T07:01:54.807Z,14.07
2023-03-24T07:02:54.804Z,14.07
2023-03-24T07:03:54.787Z,14.06
2023-03-24T07:04:54.741Z,14.12
2023-03-24T07:05:54.692Z,14.12
2023-03-24T07:07:08.647Z,14.10
2023-03-24T07:08:24.124Z,14.04
2023-03-24T07:08:54.621Z,14.09
2023-03-24T07:09:54.815Z,14.01
2023-03-24T07:10:54.588Z,14.04
2023-03-24T07:11:54.580Z,14.06
2023-03-24T07:12:54.534Z,14.10
2023-03-24T07:13:54.520Z,14.17
2023-03-24T07:14:54.520Z,14.10
2023-03-24T07:15:54.545Z,14.20
2023-03-24T07:16:54.453Z,14.16
2023-03-24T07:17:54.460Z,14.24
2023-03-24T07:18:54.406Z,14.21
2023-03-24T07:19:54.385Z,14.17
2023-03-24T07:20:54.363Z,14.20
2023-03-24T07:21:54.344Z,14.10
2023-03-24T07:22:54.330Z,14.10
2023-03-24T07:23:54.302Z,14.01
2023-03-24T07:24:54.515Z,14.12
2023-03-24T07:25:54.246Z,14.17
2023-03-24T07:26:54.244Z,14.14
2023-03-24T07:27:54.206Z,14.27
2023-03-24T07:28:54.258Z,14.28
2023-03-24T07:29:54.165Z,14.27
2023-03-24T07:30:55.467Z,14.28
2023-03-24T07:31:54.181Z,14.32
2023-03-24T07:32:54.212Z,14.37
2023-03-24T07:33:54.095Z,14.39
2023-03-24T07:34:54.063Z,14.43
2023-03-24T07:35:54.072Z,14.39
2023-03-24T07:36:54.022Z,14.38
2023-03-24T07:37:53.998Z,14.37
2023-03-24T07:38:53.973Z,14.39
2023-03-24T07:39:53.955Z,14.39
2023-03-24T07:40:54.055Z,14.38
2023-03-24T07:41:53.921Z,14.38
2023-03-24T07:42:53.892Z,14.50
2023-03-24T07:43:53.857Z,14.49
2023-03-24T07:44:53.845Z,14.42
2023-03-24T07:45:53.849Z,14.60
2023-03-24T07:46:53.810Z,14.54
2023-03-24T07:47:53.831Z,14.52
2023-03-24T07:48:53.765Z,14.39
2023-03-24T07:49:53.737Z,14.47
2023-03-24T07:50:53.716Z,14.46
2023-03-24T07:51:53.690Z,14.44
2023-03-24T07:52:53.768Z,14.37
2023-03-24T07:53:53.643Z,14.46
2023-03-24T07:54:53.693Z,14.47
2023-03-24T07:55:53.613Z,14.42
2023-03-24T07:56:53.610Z,14.37
2023-03-24T07:57:53.564Z,14.39
2023-03-24T07:58:53.571Z,14.47
2023-03-24T07:59:53.516Z,14.29
2023-03-24T08:00:53.504Z,14.31
2023-03-24T08:01:56.714Z,14.31
2023-03-24T08:02:53.798Z,14.20
2023-03-24T08:03:53.719Z,14.35
2023-03-24T08:04:53.415Z,14.38
2023-03-24T08:05:53.655Z,14.37
2023-03-24T08:06:53.404Z,14.38
2023-03-24T08:07:53.494Z,14.37
2023-03-24T08:08:53.326Z,14.38
2023-03-24T08:09:53.301Z,14.31
2023-03-24T08:10:53.281Z,14.42
2023-03-24T08:11:53.278Z,14.39
2023-03-24T08:12:53.248Z,14.54
2023-03-24T08:13:53.220Z,14.56
2023-03-24T08:14:53.438Z,14.62
2023-03-24T08:15:53.195Z,14.62
2023-03-24T08:16:53.255Z,14.64
2023-03-24T08:17:53.186Z,14.65
2023-03-24T08:18:53.125Z,14.64
2023-03-24T08:19:59.700Z,14.68
2023-03-24T08:20:53.070Z,14.65
2023-03-24T08:21:53.041Z,14.64
2023-03-24T08:22:53.027Z,14.62
2023-03-24T08:23:52.997Z,14.64
2023-03-24T08:24:52.993Z,14.68
2023-03-24T08:25:52.975Z,14.68
2023-03-24T08:26:52.938Z,14.65
2023-03-24T08:27:52.953Z,14.67
2023-03-24T08:28:52.912Z,14.62
2023-03-24T08:29:52.876Z,14.68
2023-03-24T08:30:52.900Z,14.67
2023-03-24T08:31:52.842Z,14.71
2023-03-24T08:32:52.974Z,14.64
2023-03-24T08:33:52.792Z,14.65
2023-03-24T08:34:52.760Z,14.69
2023-03-24T08:35:52.902Z,14.78
2023-03-24T08:36:52.722Z,14.75
2023-03-24T08:37:52.741Z,14.74
2023-03-24T08:38:52.683Z,14.69
2023-03-24T08:39:52.661Z,14.68
2023-03-24T08:40:52.658Z,14.57
2023-03-24T08:41:52.639Z,14.54
2023-03-24T08:42:52.616Z,14.54
2023-03-24T08:43:52.571Z,14.53
2023-03-24T08:44:52.556Z,14.57
2023-03-24T08:45:52.555Z,14.49
2023-03-24T08:46:52.617Z,14.49
2023-03-24T08:47:52.526Z,14.50
2023-03-24T08:48:52.461Z,14.43
2023-03-24T08:49:52.434Z,14.42
2023-03-24T08:50:52.421Z,14.42
2023-03-24T08:51:52.472Z,14.52
2023-03-24T08:52:52.375Z,14.61
2023-03-24T08:53:52.350Z,14.69
2023-03-24T08:54:52.335Z,14.65
2023-03-24T08:55:52.325Z,14.84
2023-03-24T08:56:52.367Z,14.81
2023-03-24T08:57:52.262Z,14.90
2023-03-24T08:58:52.237Z,15.06
2023-03-24T08:59:52.229Z,14.98
2023-03-24T09:00:52.198Z,15.08
2023-03-24T09:01:52.204Z,15.09
2023-03-24T09:02:52.188Z,15.03
2023-03-24T09:03:52.149Z,14.98
2023-03-24T09:04:52.131Z,15.02
2023-03-24T09:05:52.091Z,14.91
2023-03-24T09:06:52.076Z,14.88
2023-03-24T09:07:52.065Z,14.90
2023-03-24T09:08:52.031Z,14.75
2023-03-24T09:09:52.010Z,14.91
2023-03-24T09:10:51.985Z,14.87
2023-03-24T09:11:51.963Z,14.87
2023-03-24T09:12:51.954Z,14.86
2023-03-24T09:13:51.930Z,14.93
2023-03-24T09:14:51.939Z,14.84
2023-03-24T09:15:52.331Z,14.88
2023-03-24T09:16:51.870Z,14.71
2023-03-24T09:17:51.869Z,14.83
2023-03-24T09:18:51.825Z,14.71
2023-03-24T09:19:51.800Z,14.68
2023-03-24T09:20:52.024Z,14.69
2023-03-24T09:21:51.762Z,14.64
2023-03-24T09:22:51.734Z,14.65
2023-03-24T09:23:51.718Z,14.62
2023-03-24T09:24:51.718Z,14.64
2023-03-24T09:25:51.666Z,14.56
2023-03-24T09:26:51.659Z,14.54
2023-03-24T09:27:51.620Z,14.52
2023-03-24T09:28:51.627Z,14.54
2023-03-24T09:29:51.580Z,14.60
2023-03-24T09:30:51.763Z,14.57
2023-03-24T09:31:51.572Z,14.60
2023-03-24T09:32:51.529Z,14.62
2023-03-24T09:33:51.496Z,14.65
2023-03-24T09:34:51.477Z,14.68
2023-03-24T09:35:51.487Z,14.68
2023-03-24T09:36:51.438Z,14.56
2023-03-24T09:37:51.402Z,14.52
2023-03-24T09:38:51.405Z,14.47
2023-03-24T09:39:51.374Z,14.52
2023-03-24T09:40:51.342Z,14.43
2023-03-24T09:41:51.324Z,14.37
2023-03-24T09:42:51.356Z,14.42
2023-03-24T09:43:51.274Z,14.44
2023-03-24T09:44:51.264Z,14.53
2023-03-24T09:45:51.244Z,14.37
2023-03-24T09:46:51.325Z,14.54
2023-03-24T09:47:51.237Z,14.39
2023-03-24T09:48:51.192Z,14.54
2023-03-24T09:49:51.153Z,14.57
2023-03-24T09:50:51.150Z,14.64
2023-03-24T09:51:51.127Z,14.62
2023-03-24T09:52:51.096Z,14.62
2023-03-24T09:53:51.070Z,14.56
2023-03-24T09:54:51.054Z,14.60
2023-03-24T09:55:51.123Z,14.62
2023-03-24T09:56:51.956Z,14.62
2023-03-24T09:57:50.983Z,14.67
2023-03-24T09:58:50.990Z,14.64
2023-03-24T09:59:50.928Z,14.74
2023-03-24T10:00:51.251Z,14.71
2023-03-24T10:01:50.891Z,14.75
2023-03-24T10:02:52.494Z,14.84
2023-03-24T10:03:51.053Z,14.78
2023-03-24T10:04:50.829Z,14.81
2023-03-24T10:05:50.853Z,14.86
2023-03-24T10:06:50.792Z,14.87
2023-03-24T10:07:50.759Z,14.87
2023-03-24T10:08:50.753Z,14.91
2023-03-24T10:09:50.735Z,15.02
2023-03-24T10:10:50.725Z,15.09
2023-03-24T10:11:50.688Z,14.95
2023-03-24T10:12:50.661Z,15.01
2023-03-24T10:13:50.636Z,15.06
2023-03-24T10:14:50.617Z,14.91
2023-03-24T10:15:50.760Z,15.05
2023-03-24T10:16:50.607Z,14.98
2023-03-24T10:17:50.558Z,14.94
2023-03-24T10:18:50.532Z,14.98
2023-03-24T10:19:50.528Z,14.84
2023-03-24T10:20:50.500Z,14.80
2023-03-24T10:21:50.484Z,14.78
2023-03-24T10:22:50.449Z,14.61
2023-03-24T10:23:50.428Z,14.68
2023-03-24T10:24:50.413Z,14.67
2023-03-24T10:25:50.564Z,14.65
2023-03-24T10:26:50.370Z,14.62
2023-03-24T10:27:50.489Z,14.65
2023-03-24T10:28:50.352Z,14.64
2023-03-24T10:29:50.299Z,14.65
2023-03-24T10:30:50.279Z,14.54
2023-03-24T10:31:50.318Z,14.67
2023-03-24T10:32:50.274Z,14.62
2023-03-24T10:33:50.218Z,14.62
2023-03-24T10:34:50.198Z,14.60
2023-03-24T10:35:50.494Z,14.62
2023-03-24T10:36:50.154Z,14.46
2023-03-24T10:37:50.134Z,14.37
2023-03-24T10:38:50.128Z,14.38
2023-03-24T10:39:50.090Z,14.39
2023-03-24T10:40:50.080Z,14.32
2023-03-24T10:41:50.053Z,14.25
2023-03-24T10:43:07.041Z,14.21
2023-03-24T10:43:49.997Z,14.16
2023-03-24T10:44:49.976Z,14.12
2023-03-24T10:45:50.325Z,14.13
2023-03-24T10:46:49.945Z,14.07
2023-03-24T10:47:49.927Z,14.06
2023-03-24T10:48:49.928Z,14.01
2023-03-24T10:49:49.868Z,13.96
2023-03-24T10:50:49.857Z,13.94
2023-03-24T10:51:49.857Z,13.56
2023-03-24T10:52:49.808Z,13.29
2023-03-24T10:53:49.833Z,13.09
2023-03-24T10:54:49.764Z,12.97
2023-03-24T10:55:49.863Z,12.84
2023-03-24T10:56:49.739Z,12.82
2023-03-24T10:57:49.689Z,12.82
2023-03-24T10:58:49.699Z,12.77
2023-03-24T10:59:49.658Z,12.71
2023-03-24T11:00:49.663Z,12.71
2023-03-24T11:01:49.657Z,12.74
2023-03-24T11:02:49.635Z,12.74
2023-03-24T11:03:49.558Z,12.77
2023-03-24T11:04:49.532Z,12.71
2023-03-24T11:05:49.677Z,12.74
2023-03-24T11:06:49.493Z,12.71
2023-03-24T11:07:49.495Z,12.78
2023-03-24T11:08:49.488Z,12.79
2023-03-24T11:09:49.429Z,12.81
2023-03-24T11:10:49.418Z,12.84
2023-03-24T11:11:49.368Z,12.85
2023-03-24T11:12:49.364Z,12.78
2023-03-24T11:13:49.388Z,12.81
2023-03-24T11:14:49.309Z,12.75
2023-03-24T11:15:49.470Z,12.71
2023-03-24T11:16:49.358Z,12.81
2023-03-24T11:17:49.271Z,12.82
2023-03-24T11:18:49.221Z,12.85
2023-03-24T11:19:49.183Z,12.92
2023-03-24T11:20:49.193Z,13.04
2023-03-24T11:21:49.146Z,12.85
2023-03-24T11:22:49.118Z,12.88
2023-03-24T11:23:49.104Z,12.92
2023-03-24T11:24:49.074Z,13.02
2023-03-24T11:25:49.214Z,13.11
2023-03-24T11:26:49.035Z,13.14
2023-03-24T11:27:49.005Z,13.27
2023-03-24T11:28:48.992Z,13.43
2023-03-24T11:29:48.982Z,13.46
2023-03-24T11:30:48.997Z,13.40
2023-03-24T11:31:48.925Z,13.25
2023-03-24T11:33:48.887Z,13.25
2023-03-24T11:34:48.868Z,13.25
2023-03-24T11:35:56.077Z,13.17
2023-03-24T11:36:48.876Z,13.18
2023-03-24T11:37:48.800Z,13.20
2023-03-24T11:38:48.765Z,13.18
2023-03-24T11:39:48.770Z,13.22
2023-03-24T11:40:48.727Z,13.21
2023-03-24T11:41:48.711Z,13.14
2023-03-24T11:42:48.690Z,13.18
2023-03-24T11:43:48.666Z,13.33
2023-03-24T11:44:48.642Z,13.56
2023-03-24T11:45:48.923Z,13.69
2023-03-24T11:46:48.653Z,13.77
2023-03-24T11:47:48.679Z,13.74
2023-03-24T11:48:48.562Z,13.76
2023-03-24T11:49:48.538Z,13.88
2023-03-24T11:50:48.556Z,13.89
2023-03-24T11:51:48.532Z,13.95
2023-03-24T11:52:48.477Z,14.01
2023-03-24T11:53:48.473Z,13.99
2023-03-24T11:54:48.445Z,13.96
2023-03-24T11:55:48.706Z,13.81
2023-03-24T11:56:48.432Z,13.98
2023-03-24T11:57:48.384Z,13.88
2023-03-24T11:58:48.367Z,13.79
2023-03-24T11:59:48.339Z,13.80
2023-03-24T12:00:48.315Z,13.67
2023-03-24T12:01:48.425Z,13.71
2023-03-24T12:02:48.400Z,13.59
2023-03-24T12:03:48.403Z,13.58
2023-03-24T12:04:48.228Z,13.67
2023-03-24T12:05:50.365Z,13.65
2023-03-24T12:06:48.193Z,13.76
2023-03-24T12:07:48.170Z,13.76
2023-03-24T12:08:48.178Z,13.84
2023-03-24T12:09:48.136Z,13.77
2023-03-24T12:10:48.138Z,13.80
2023-03-24T12:11:48.093Z,13.84
2023-03-24T12:12:48.074Z,13.89
2023-03-24T12:13:48.046Z,13.89
2023-03-24T12:14:48.023Z,13.95
2023-03-24T12:15:48.277Z,14.04
2023-03-24T12:16:48.034Z,14.09
2023-03-24T12:17:48.027Z,14.14
2023-03-24T12:18:47.955Z,14.14
2023-03-24T12:19:47.930Z,14.13
2023-03-24T12:20:47.903Z,14.13
2023-03-24T12:21:47.889Z,14.09
2023-03-24T12:22:47.855Z,14.06
2023-03-24T12:23:47.840Z,14.06
2023-03-24T12:24:47.810Z,14.10
2023-03-24T12:25:48.103Z,13.98
2023-03-24T12:26:47.773Z,14.07
2023-03-24T12:27:47.748Z,14.02
2023-03-24T12:28:47.737Z,13.95
2023-03-24T12:29:47.711Z,14.06
2023-03-24T12:30:47.868Z,14.01
2023-03-24T12:31:47.719Z,14.06
2023-03-24T12:32:47.683Z,14.06
2023-03-24T12:33:47.629Z,14.17
2023-03-24T12:34:47.598Z,14.32
2023-03-24T12:35:47.867Z,14.61
2023-03-24T12:36:47.562Z,14.88
2023-03-24T12:37:47.538Z,15.28
2023-03-24T12:38:47.590Z,15.31
2023-03-24T12:39:47.498Z,15.30
2023-03-24T12:40:47.484Z,15.08
2023-03-24T12:41:47.469Z,15.05
2023-03-24T12:42:47.442Z,15.03
2023-03-24T12:43:47.419Z,14.84
2023-03-24T12:44:47.405Z,14.94
2023-03-24T12:45:47.639Z,15.03
2023-03-24T12:46:48.554Z,15.20
2023-03-24T12:47:47.351Z,15.46
2023-03-24T12:48:47.322Z,15.85
2023-03-24T12:49:47.306Z,15.86
2023-03-24T12:50:47.299Z,16.15
2023-03-24T12:51:47.379Z,16.37
2023-03-24T12:52:51.154Z,16.26
2023-03-24T12:53:47.233Z,16.38